createdAt,value
2018-09-30T00:02:20.137Z,19.00
2018-09-30T00:04:48.663Z,23.75
2018-09-30T00:07:17.100Z,23.50
2018-09-30T00:09:45.615Z,24.25
2018-09-30T00:12:14.108Z,20.25
2018-09-30T00:14:42.550Z,20.75
2018-09-30T00:17:10.996Z,19.75
2018-09-30T00:19:39.538Z,31.25
2018-09-30T00:22:08.007Z,19.00
2018-09-30T00:24:41.662Z,17.25
2018-09-30T00:27:15.592Z,20.25
2018-09-30T00:29:44.123Z,18.50
2018-09-30T00:32:12.638Z,23.25
2018-09-30T00:34:41.999Z,14.75
2018-09-30T00:37:10.451Z,17.75
2018-09-30T00:39:38.942Z,18.25
2018-09-30T00:42:07.792Z,15.75
2018-09-30T00:44:36.358Z,19.00
2018-09-30T00:47:06.947Z,19.75
2018-09-30T00:49:35.476Z,17.50
2018-09-30T00:52:03.956Z,13.75
2018-09-30T00:54:32.444Z,19.75
2018-09-30T00:57:00.911Z,22.25
2018-09-30T00:59:30.635Z,21.75
2018-09-30T01:01:59.119Z,16.25
2018-09-30T01:04:27.611Z,15.75
2018-09-30T01:06:56.099Z,17.25
2018-09-30T01:09:24.562Z,16.25
2018-09-30T01:11:53.082Z,20.00
2018-09-30T01:14:21.575Z,22.75
2018-09-30T01:16:50.098Z,18.25
2018-09-30T01:19:18.591Z,19.25
2018-09-30T01:21:47.132Z,17.75
2018-09-30T01:24:15.594Z,22.25
2018-09-30T01:26:44.112Z,20.75
2018-09-30T01:29:12.624Z,22.00
2018-09-30T01:31:41.117Z,21.50
2018-09-30T01:34:09.591Z,36.75
2018-09-30T01:36:38.088Z,24.25
2018-09-30T01:39:07.653Z,23.25
2018-09-30T01:41:36.132Z,26.25
2018-09-30T01:44:04.722Z,22.50
2018-09-30T01:46:33.214Z,34.00
2018-09-30T01:49:01.720Z,29.00
2018-09-30T01:51:30.252Z,27.00
2018-09-30T01:53:58.757Z,23.00
2018-09-30T01:56:27.297Z,26.00
2018-09-30T01:58:55.841Z,26.25
2018-09-30T02:01:24.338Z,28.00
2018-09-30T02:03:52.816Z,33.25
2018-09-30T02:06:21.453Z,29.75
2018-09-30T02:08:49.923Z,29.00
2018-09-30T02:11:18.448Z,30.50
2018-09-30T02:13:46.940Z,32.00
2018-09-30T02:16:15.385Z,33.50
2018-09-30T02:18:43.887Z,25.50
2018-09-30T02:21:12.376Z,26.00
2018-09-30T02:23:40.881Z,31.00
2018-09-30T02:26:09.412Z,31.00
2018-09-30T02:28:37.913Z,30.50
2018-09-30T02:31:06.444Z,33.00
2018-09-30T02:33:34.952Z,29.00
2018-09-30T02:36:03.444Z,27.50
2018-09-30T02:38:31.933Z,28.00
2018-09-30T02:41:00.425Z,30.00
2018-09-30T02:43:28.932Z,34.00
2018-09-30T02:45:57.492Z,30.00
2018-09-30T02:48:25.980Z,36.00
2018-09-30T02:50:54.485Z,28.50
2018-09-30T02:53:23.039Z,37.50
2018-09-30T02:55:51.649Z,33.50
2018-09-30T02:58:20.129Z,29.50
2018-09-30T03:00:49.649Z,40.50
2018-09-30T03:03:18.157Z,41.50
2018-09-30T03:05:46.663Z,31.50
2018-09-30T03:08:20.401Z,41.50
2018-09-30T03:10:48.888Z,34.00
2018-09-30T03:13:17.347Z,38.00
2018-09-30T03:15:45.812Z,28.50
2018-09-30T03:18:14.257Z,34.00
2018-09-30T03:20:42.721Z,37.00
2018-09-30T03:23:11.201Z,34.00
2018-09-30T03:25:39.652Z,33.00
2018-09-30T03:28:08.164Z,35.50
2018-09-30T03:30:36.616Z,35.00
2018-09-30T03:33:05.121Z,39.00
2018-09-30T03:35:33.651Z,35.50
2018-09-30T03:38:02.116Z,40.50
2018-09-30T03:40:30.593Z,38.00
2018-09-30T03:42:59.099Z,35.50
2018-09-30T03:45:27.596Z,40.50
2018-09-30T03:47:56.100Z,40.00
2018-09-30T03:50:24.649Z,38.50
2018-09-30T03:52:53.153Z,34.50
2018-09-30T03:55:21.864Z,48.00
2018-09-30T03:57:50.306Z,43.50
2018-09-30T04:00:18.872Z,37.00
2018-09-30T04:02:47.354Z,43.50
2018-09-30T04:05:15.919Z,39.00
2018-09-30T04:07:44.502Z,37.00
2018-09-30T04:10:13.091Z,39.00
2018-09-30T04:12:41.551Z,32.50
2018-09-30T04:15:10.086Z,42.00
2018-09-30T04:17:38.635Z,47.50
2018-09-30T04:20:07.169Z,43.00
2018-09-30T04:22:35.704Z,37.00
2018-09-30T04:25:04.206Z,49.00
2018-09-30T04:27:32.654Z,36.50
2018-09-30T04:30:01.155Z,38.00
2018-09-30T04:32:29.680Z,46.00
2018-09-30T04:34:58.159Z,33.00
2018-09-30T04:37:26.682Z,39.00
2018-09-30T04:39:55.170Z,34.50
2018-09-30T04:42:23.661Z,34.50
2018-09-30T04:44:52.165Z,43.00
2018-09-30T04:47:20.648Z,32.00
2018-09-30T04:49:49.161Z,34.50
2018-09-30T04:52:17.659Z,34.00
2018-09-30T04:54:46.161Z,33.00
2018-09-30T04:57:14.605Z,38.50
2018-09-30T04:59:43.070Z,36.00
2018-09-30T05:02:11.557Z,43.50
2018-09-30T05:04:40.037Z,40.00
2018-09-30T05:07:08.504Z,41.50
2018-09-30T05:09:36.970Z,40.50
2018-09-30T05:12:05.496Z,32.00
2018-09-30T05:14:33.958Z,31.00
2018-09-30T05:17:02.476Z,40.00
2018-09-30T05:19:30.914Z,37.50
2018-09-30T05:21:59.373Z,33.50
2018-09-30T05:24:27.849Z,45.50
2018-09-30T05:26:56.309Z,37.00
2018-09-30T05:29:25.628Z,40.50
2018-09-30T05:31:54.127Z,39.50
2018-09-30T05:34:22.570Z,32.00
2018-09-30T05:36:51.093Z,29.00
2018-09-30T05:39:20.038Z,36.00
2018-09-30T05:41:49.469Z,28.00
2018-09-30T05:44:17.978Z,39.00
2018-09-30T05:46:46.476Z,40.50
2018-09-30T05:49:14.972Z,38.50
2018-09-30T05:51:43.434Z,43.00
2018-09-30T05:54:13.172Z,35.00
2018-09-30T05:56:41.735Z,33.00
2018-09-30T05:59:10.332Z,34.50
2018-09-30T06:01:38.931Z,35.00
2018-09-30T06:04:07.676Z,40.00
2018-09-30T06:06:36.080Z,34.50
2018-09-30T06:09:07.464Z,37.50
2018-09-30T06:11:35.807Z,33.00
2018-09-30T06:14:04.445Z,32.00
2018-09-30T06:16:33.647Z,35.50
2018-09-30T06:19:02.365Z,39.00
2018-09-30T06:21:30.819Z,37.00
2018-09-30T06:23:59.383Z,39.50
2018-09-30T06:26:27.808Z,37.50
2018-09-30T06:28:56.305Z,35.50
2018-09-30T06:31:24.770Z,34.00
2018-09-30T06:33:53.338Z,35.50
2018-09-30T06:36:21.846Z,32.00
2018-09-30T06:38:50.359Z,35.00
2018-09-30T06:41:19.357Z,32.50
2018-09-30T06:43:47.861Z,39.00
2018-09-30T06:46:16.371Z,41.00
2018-09-30T06:48:44.852Z,42.50
2018-09-30T06:51:13.340Z,53.00
2018-09-30T06:53:41.912Z,51.00
2018-09-30T06:56:10.396Z,48.00
2018-09-30T06:58:38.862Z,47.00
2018-09-30T07:01:07.394Z,43.00
2018-09-30T07:03:35.838Z,39.00
2018-09-30T07:06:04.382Z,42.75
2018-09-30T07:08:32.862Z,39.50
2018-09-30T07:11:01.321Z,46.50
2018-09-30T07:13:29.770Z,42.50
2018-09-30T07:15:58.277Z,38.00
2018-09-30T07:18:26.719Z,38.75
2018-09-30T07:20:56.022Z,48.75
2018-09-30T07:23:24.464Z,37.50
2018-09-30T07:25:52.918Z,44.00
2018-09-30T07:28:21.395Z,49.50
2018-09-30T07:30:49.846Z,45.25
2018-09-30T07:33:18.464Z,45.75
2018-09-30T07:35:46.914Z,46.75
2018-09-30T07:38:15.350Z,48.00
2018-09-30T07:40:43.812Z,43.25
2018-09-30T07:43:12.242Z,45.25
2018-09-30T07:45:40.785Z,48.00
2018-09-30T07:48:09.201Z,41.00
2018-09-30T07:50:37.764Z,47.50
2018-09-30T07:53:08.605Z,44.75
2018-09-30T07:55:37.064Z,43.50
2018-09-30T07:58:05.553Z,56.25
2018-09-30T08:00:34.062Z,51.50
2018-09-30T08:03:02.657Z,49.50
2018-09-30T08:05:31.143Z,47.50
2018-09-30T08:07:59.640Z,36.25
2018-09-30T08:10:28.091Z,39.75
2018-09-30T08:12:56.603Z,38.25
2018-09-30T08:15:25.142Z,49.25
2018-09-30T08:17:53.646Z,42.25
2018-09-30T08:20:22.139Z,42.00
2018-09-30T08:22:50.591Z,50.50
2018-09-30T08:25:24.062Z,45.50
2018-09-30T08:27:52.570Z,49.00
2018-09-30T08:30:21.101Z,44.25
2018-09-30T08:32:49.603Z,42.25
2018-09-30T08:35:18.119Z,49.75
2018-09-30T08:37:51.925Z,45.25
2018-09-30T08:40:25.555Z,49.50
2018-09-30T08:42:54.054Z,43.75
2018-09-30T08:45:23.494Z,49.50
2018-09-30T08:47:51.989Z,43.00
2018-09-30T08:50:20.545Z,49.50
2018-09-30T08:52:49.029Z,42.75
2018-09-30T08:55:17.516Z,46.25
2018-09-30T08:57:47.031Z,34.25
2018-09-30T09:00:15.584Z,47.75
2018-09-30T09:02:44.115Z,40.25
2018-09-30T09:05:12.624Z,41.00
2018-09-30T09:07:41.102Z,46.75
2018-09-30T09:10:09.611Z,44.75
2018-09-30T09:12:38.224Z,40.75
2018-09-30T09:15:06.849Z,36.75
2018-09-30T09:17:35.327Z,40.50
2018-09-30T09:20:05.600Z,39.25
2018-09-30T09:22:34.136Z,42.50
2018-09-30T09:25:02.682Z,40.25
2018-09-30T09:27:31.163Z,38.75
2018-09-30T09:29:59.662Z,39.00
2018-09-30T09:32:28.184Z,36.00
2018-09-30T09:34:56.695Z,40.50
2018-09-30T09:37:25.166Z,41.50
2018-09-30T09:39:53.655Z,40.00
2018-09-30T09:42:22.120Z,38.25
2018-09-30T09:44:50.639Z,37.25
2018-09-30T09:47:19.117Z,42.75
2018-09-30T09:49:47.630Z,38.25
2018-09-30T09:52:17.510Z,43.50
2018-09-30T09:54:46.024Z,38.25
2018-09-30T09:57:14.581Z,35.75
2018-09-30T09:59:43.088Z,36.00
2018-09-30T10:02:11.633Z,35.75
2018-09-30T10:04:42.285Z,34.25
2018-09-30T10:07:10.853Z,40.67
2018-09-30T10:09:40.054Z,36.50
2018-09-30T10:12:09.350Z,36.25
2018-09-30T10:14:38.602Z,37.75
2018-09-30T10:17:08.004Z,38.75
2018-09-30T10:19:37.318Z,27.75
2018-09-30T10:22:06.447Z,28.00
2018-09-30T10:24:35.669Z,32.25
2018-09-30T10:28:13.395Z,23.75
2018-09-30T10:30:42.615Z,30.25
2018-09-30T10:33:11.857Z,29.00
2018-09-30T10:35:41.306Z,29.50
2018-09-30T10:38:10.545Z,27.25
2018-09-30T10:40:39.854Z,35.25
2018-09-30T10:43:09.048Z,30.50
2018-09-30T10:45:38.244Z,37.50
2018-09-30T10:48:07.468Z,26.75
2018-09-30T10:50:37.307Z,31.75
2018-09-30T10:53:26.130Z,22.75
2018-09-30T10:55:55.330Z,25.00
2018-09-30T10:58:24.551Z,24.75
2018-09-30T11:00:53.807Z,27.50
2018-09-30T11:03:24.001Z,25.25
2018-09-30T11:05:53.203Z,25.75
2018-09-30T11:08:22.397Z,27.50
2018-09-30T11:10:51.568Z,28.50
2018-09-30T11:13:20.847Z,27.75
2018-09-30T11:15:50.069Z,30.00
2018-09-30T11:18:19.304Z,31.00
2018-09-30T11:20:48.512Z,31.50
2018-09-30T11:23:17.780Z,29.75
2018-09-30T11:25:47.134Z,32.00
2018-09-30T11:28:16.371Z,34.25
2018-09-30T11:30:45.649Z,26.50
2018-09-30T11:33:14.949Z,30.25
2018-09-30T11:35:44.234Z,29.75
2018-09-30T11:38:13.514Z,36.25
2018-09-30T11:40:43.154Z,36.50
2018-09-30T11:43:12.377Z,35.00
2018-09-30T11:45:41.576Z,35.00
2018-09-30T11:48:10.827Z,35.00
2018-09-30T11:50:41.315Z,33.75
2018-09-30T11:53:10.590Z,32.75
2018-09-30T11:55:39.896Z,35.50
2018-09-30T11:58:09.180Z,39.75
2018-09-30T12:00:38.578Z,38.25
2018-09-30T12:03:07.866Z,37.75
2018-09-30T12:05:37.152Z,42.50
2018-09-30T12:08:06.936Z,36.00
2018-09-30T12:10:36.191Z,39.25
2018-09-30T12:13:05.467Z,34.50
2018-09-30T12:15:34.694Z,41.50
2018-09-30T12:18:03.910Z,32.00
2018-09-30T12:20:33.091Z,38.75
2018-09-30T12:23:02.326Z,34.00
2018-09-30T12:25:31.607Z,32.50
2018-09-30T12:28:00.872Z,36.25
2018-09-30T12:30:30.084Z,30.00
2018-09-30T12:32:59.293Z,37.25
2018-09-30T12:35:29.058Z,33.25
2018-09-30T12:37:58.298Z,35.75
2018-09-30T12:40:28.053Z,35.50
2018-09-30T12:42:57.275Z,29.00
2018-09-30T12:45:26.547Z,35.00
2018-09-30T12:47:55.799Z,32.00
2018-09-30T12:50:25.004Z,33.00
2018-09-30T12:52:54.305Z,29.75
2018-09-30T12:55:23.625Z,27.00
2018-09-30T12:57:52.847Z,35.25
2018-09-30T13:00:22.188Z,32.00
2018-09-30T13:02:51.445Z,33.75
2018-09-30T13:05:20.633Z,37.25
2018-09-30T13:07:49.897Z,36.75
2018-09-30T13:10:19.125Z,34.00
2018-09-30T13:12:48.366Z,31.50
2018-09-30T13:15:17.601Z,39.50
2018-09-30T13:17:46.832Z,31.50
2018-09-30T13:20:16.130Z,33.00
2018-09-30T13:22:45.359Z,38.00
2018-09-30T13:25:15.333Z,35.25
2018-09-30T13:27:44.573Z,38.50
2018-09-30T13:30:13.879Z,38.25
2018-09-30T13:32:43.109Z,33.75
2018-09-30T13:35:12.383Z,38.25
2018-09-30T13:37:41.633Z,39.00
2018-09-30T13:40:11.036Z,39.75
2018-09-30T13:42:40.132Z,39.75
2018-09-30T13:45:09.648Z,40.00
2018-09-30T13:47:38.849Z,40.75
2018-09-30T13:50:08.074Z,33.75
2018-09-30T13:52:37.297Z,32.25
2018-09-30T13:55:06.540Z,34.50
2018-09-30T13:57:35.746Z,34.00
2018-09-30T14:00:05.609Z,34.50
2018-09-30T14:02:34.854Z,32.50
2018-09-30T14:05:04.097Z,25.00
2018-09-30T14:07:33.564Z,26.75
2018-09-30T14:10:03.906Z,25.00
2018-09-30T14:12:33.296Z,27.50
2018-09-30T14:15:02.520Z,28.00
2018-09-30T14:17:33.724Z,24.75
2018-09-30T14:20:04.361Z,27.00
2018-09-30T14:22:36.624Z,20.50
2018-09-30T14:25:08.274Z,18.25
2018-09-30T14:27:40.196Z,20.25
2018-09-30T14:30:11.459Z,21.25
2018-09-30T14:32:43.944Z,20.75
2018-09-30T14:35:14.469Z,21.50
2018-09-30T14:37:46.353Z,23.75
2018-09-30T14:40:17.584Z,17.75
2018-09-30T14:42:50.341Z,19.75
2018-09-30T14:45:19.635Z,21.50
2018-09-30T14:47:48.853Z,20.00
2018-09-30T14:50:18.052Z,24.50
2018-09-30T14:52:47.240Z,29.00
2018-09-30T14:55:16.500Z,23.00
2018-09-30T14:57:45.703Z,22.00
2018-09-30T15:00:14.919Z,21.25
2018-09-30T15:02:44.211Z,20.75
2018-09-30T15:05:13.596Z,18.50
2018-09-30T15:09:02.104Z,19.00
2018-09-30T15:11:31.373Z,18.50
2018-09-30T15:14:00.573Z,20.75
2018-09-30T15:16:29.795Z,20.50
2018-09-30T15:18:59.012Z,21.50
2018-09-30T15:21:28.291Z,24.25
2018-09-30T15:23:57.578Z,23.00
2018-09-30T15:26:27.042Z,19.50
2018-09-30T15:28:56.321Z,23.00
2018-09-30T15:31:25.604Z,24.50
2018-09-30T15:33:55.035Z,25.75
2018-09-30T15:36:24.936Z,21.75
2018-09-30T15:38:55.261Z,23.75
2018-09-30T15:41:25.196Z,19.00
2018-09-30T15:43:54.484Z,22.75
2018-09-30T15:46:25.036Z,18.50
2018-09-30T15:48:54.649Z,21.00
2018-09-30T15:51:24.352Z,19.25
2018-09-30T15:53:53.886Z,20.50
2018-09-30T15:56:23.492Z,20.00
2018-09-30T15:58:53.181Z,18.25
2018-09-30T16:01:22.912Z,22.75
2018-09-30T16:03:53.801Z,18.75
2018-09-30T16:06:23.287Z,20.75
2018-09-30T16:08:52.595Z,26.75
2018-09-30T16:11:22.557Z,20.00
2018-09-30T16:13:52.644Z,23.50
2018-09-30T16:16:22.513Z,20.00
2018-09-30T16:18:53.213Z,23.50
2018-09-30T16:21:23.076Z,22.75
2018-09-30T16:23:52.869Z,19.00
2018-09-30T16:26:23.735Z,19.50
2018-09-30T16:28:53.701Z,22.50
2018-09-30T16:31:23.457Z,19.75
2018-09-30T16:33:53.306Z,19.00
2018-09-30T16:36:23.172Z,18.00
2018-09-30T16:38:53.400Z,18.00
2018-09-30T16:41:22.897Z,17.50
2018-09-30T16:43:52.589Z,18.00
2018-09-30T16:46:22.457Z,19.25
2018-09-30T16:48:52.490Z,18.50
2018-09-30T16:51:22.404Z,21.00
2018-09-30T16:53:52.182Z,19.75
2018-09-30T16:56:21.951Z,20.50
2018-09-30T16:58:51.748Z,22.25
2018-09-30T17:01:21.441Z,25.50
2018-09-30T17:03:51.580Z,30.25
2018-09-30T17:06:21.349Z,21.00
2018-09-30T17:08:52.329Z,22.00
2018-09-30T17:11:21.870Z,20.00
2018-09-30T17:13:54.458Z,18.50
2018-09-30T17:16:26.316Z,22.50
2018-09-30T17:18:55.772Z,24.00
2018-09-30T17:21:25.922Z,19.75
2018-09-30T17:23:56.080Z,23.25
2018-09-30T17:26:30.626Z,24.25
2018-09-30T17:29:02.513Z,24.25
2018-09-30T17:31:33.041Z,24.00
2018-09-30T17:34:04.087Z,27.75
2018-09-30T17:36:37.286Z,22.25
2018-09-30T17:39:10.368Z,23.75
2018-09-30T17:41:41.597Z,24.50
2018-09-30T17:44:12.473Z,25.00
2018-09-30T17:46:48.821Z,24.25
2018-09-30T17:49:20.057Z,23.75
2018-09-30T17:51:51.331Z,26.00
2018-09-30T17:54:23.619Z,28.50
2018-09-30T17:56:56.481Z,24.75
2018-09-30T17:59:28.315Z,22.75
2018-09-30T18:02:03.549Z,29.75
2018-09-30T18:04:33.363Z,25.00
2018-09-30T18:07:05.537Z,25.75
2018-09-30T18:09:37.898Z,25.50
2018-09-30T18:12:07.823Z,28.25
2018-09-30T18:14:37.604Z,27.00
2018-09-30T18:17:14.993Z,26.00
2018-09-30T18:19:44.939Z,24.00
2018-09-30T18:22:14.596Z,25.75
2018-09-30T18:24:44.141Z,27.25
2018-09-30T18:27:15.231Z,28.00
2018-09-30T18:29:44.720Z,26.25
2018-09-30T18:32:15.109Z,26.25
2018-09-30T18:34:45.152Z,32.75
2018-09-30T18:37:19.545Z,25.00
2018-09-30T18:39:49.562Z,29.75
2018-09-30T18:42:19.336Z,27.75
2018-09-30T18:44:48.697Z,30.25
2018-09-30T18:47:19.016Z,27.75
2018-09-30T18:49:48.443Z,28.50
2018-09-30T18:52:18.255Z,27.00
2018-09-30T18:54:49.854Z,28.00
2018-09-30T18:57:25.196Z,28.00
2018-09-30T19:00:03.593Z,28.50
2018-09-30T19:02:35.234Z,32.00
2018-09-30T19:05:06.966Z,30.00
2018-09-30T19:07:38.256Z,29.50
2018-09-30T19:10:08.025Z,31.50
2018-09-30T19:12:39.177Z,30.50
2018-09-30T19:15:09.925Z,29.00
2018-09-30T19:17:41.546Z,32.25
2018-09-30T19:20:12.348Z,33.00
2018-09-30T19:22:43.151Z,33.25
2018-09-30T19:25:13.716Z,34.75
2018-09-30T19:27:46.108Z,29.75
2018-09-30T19:30:17.013Z,32.75
2018-09-30T19:32:47.104Z,33.00
2018-09-30T19:35:18.458Z,31.00
2018-09-30T19:37:52.102Z,33.75
2018-09-30T19:40:22.487Z,39.50
2018-09-30T19:42:52.849Z,34.50
2018-09-30T19:45:23.520Z,32.75
2018-09-30T19:47:55.584Z,35.00
2018-09-30T19:50:26.150Z,40.75
2018-09-30T19:52:55.716Z,32.25
2018-09-30T19:55:25.424Z,36.50
2018-09-30T19:57:57.923Z,34.75
2018-09-30T20:00:27.219Z,34.25
2018-09-30T20:02:56.438Z,35.50
2018-09-30T20:05:25.824Z,37.50
2018-09-30T20:10:34.779Z,34.25
2018-09-30T20:13:03.949Z,27.75
2018-09-30T20:15:33.236Z,33.50
2018-09-30T20:18:03.098Z,30.00
2018-09-30T20:20:32.305Z,29.75
2018-09-30T20:23:01.485Z,26.75
2018-09-30T20:25:30.748Z,27.75
2018-09-30T20:27:59.928Z,34.25
2018-09-30T20:30:29.098Z,32.50
2018-09-30T20:32:58.331Z,35.25
2018-09-30T20:35:27.522Z,38.00
2018-09-30T20:37:56.722Z,32.25
2018-09-30T20:40:25.971Z,34.25
2018-09-30T20:42:55.169Z,36.75
2018-09-30T20:45:24.328Z,34.25
2018-09-30T20:47:53.531Z,36.25
2018-09-30T20:50:22.737Z,32.50
2018-09-30T20:52:51.979Z,34.25
2018-09-30T20:55:21.172Z,27.75
2018-09-30T20:57:50.395Z,33.75
2018-09-30T21:00:19.658Z,32.25
2018-09-30T21:02:48.851Z,31.50
2018-09-30T21:06:24.463Z,26.00
2018-09-30T21:08:53.700Z,27.25
2018-09-30T21:11:23.051Z,34.25
2018-09-30T21:13:52.237Z,29.25
2018-09-30T21:16:21.474Z,28.25
2018-09-30T21:18:50.795Z,30.50
2018-09-30T21:21:19.926Z,29.50
2018-09-30T21:23:49.109Z,31.25
2018-09-30T21:26:18.813Z,31.50
2018-09-30T21:28:48.115Z,30.75
2018-09-30T21:31:17.341Z,34.50
2018-09-30T21:33:46.631Z,33.75
2018-09-30T21:36:18.872Z,39.75
2018-09-30T21:38:48.107Z,38.00
2018-09-30T21:41:17.329Z,32.00
2018-09-30T21:43:46.520Z,30.00
2018-09-30T21:46:15.694Z,30.75
2018-09-30T21:48:44.955Z,30.75
2018-09-30T21:51:14.090Z,25.50
2018-09-30T21:53:43.303Z,21.50
2018-09-30T21:56:12.564Z,22.25
2018-09-30T21:58:42.720Z,18.50
2018-09-30T22:01:11.981Z,16.75
2018-09-30T22:03:41.238Z,17.75
2018-09-30T22:06:10.433Z,16.25
2018-09-30T22:08:40.686Z,14.75
2018-09-30T22:11:09.894Z,18.75
2018-09-30T22:13:39.135Z,13.50
2018-09-30T22:16:08.400Z,16.25
2018-09-30T22:18:37.621Z,18.00
2018-09-30T22:21:06.998Z,16.50
2018-09-30T22:23:36.235Z,18.00
2018-09-30T22:26:05.439Z,15.25
2018-09-30T22:28:34.853Z,13.00
2018-09-30T22:31:04.008Z,17.50
2018-09-30T22:33:33.160Z,17.50
2018-09-30T22:36:02.370Z,17.50
2018-09-30T22:38:31.540Z,17.00
2018-09-30T22:41:00.709Z,20.25
2018-09-30T22:43:29.898Z,20.00
2018-09-30T22:45:59.074Z,22.00
2018-09-30T22:48:28.296Z,23.75
2018-09-30T22:50:57.495Z,17.25
2018-09-30T22:53:26.765Z,22.00
2018-09-30T22:55:55.905Z,24.50
2018-09-30T22:58:25.094Z,18.00
2018-09-30T23:00:54.260Z,22.75
2018-09-30T23:03:23.420Z,19.75
2018-09-30T23:05:52.626Z,29.00
2018-09-30T23:08:21.826Z,23.50
2018-09-30T23:10:51.476Z,22.75
2018-09-30T23:13:20.718Z,26.25
2018-09-30T23:15:49.902Z,23.75
2018-09-30T23:18:19.076Z,26.50
2018-09-30T23:20:49.303Z,25.75
2018-09-30T23:23:18.500Z,23.00
2018-09-30T23:25:47.708Z,20.75
2018-09-30T23:28:16.889Z,19.00
2018-09-30T23:30:46.103Z,19.75
2018-09-30T23:33:15.295Z,19.75
2018-09-30T23:35:44.481Z,21.00
2018-09-30T23:38:13.687Z,18.75
2018-09-30T23:40:43.239Z,27.75
2018-09-30T23:43:12.405Z,22.00
2018-09-30T23:45:41.653Z,18.25
2018-09-30T23:48:10.871Z,19.50
2018-09-30T23:50:40.033Z,18.50
2018-09-30T23:53:09.233Z,23.50
2018-09-30T23:55:38.399Z,27.00
2018-09-30T23:58:13.875Z,21.50
